Time;durP1;ratioP1;P1;durP2;ratioP2;P2;SDS_P1;SDS_P2;PMS_P1;PMS_P2;Temp;Humidity;BMP_temperature;BMP_pressure;BME280_temperature;BME280_humidity;BME280_pressure;Samples;Min_cycle;Max_cycle;Signal;HPM_P1;HPM_P2
2021/12/03 00:00:29;;;;;;;10.43;5.10;;;3.10;52.90;;;;;;5112549;27;35672;-77
2021/12/03 00:02:55;;;;;;;5.22;4.18;;;3.20;52.90;;;;;;5098258;27;34386;-77
2021/12/03 00:05:21;;;;;;;9.07;5.20;;;3.20;53.00;;;;;;5114592;27;34272;-77
2021/12/03 00:07:48;;;;;;;6.35;4.28;;;3.20;52.80;;;;;;5134103;27;34247;-77
2021/12/03 00:10:16;;;;;;;6.25;4.25;;;3.20;52.90;;;;;;5114260;27;36656;-76
2021/12/03 00:12:42;;;;;;;5.63;4.25;;;3.20;52.90;;;;;;5115629;27;34410;-77
2021/12/03 00:15:11;;;;;;;8.20;4.18;;;3.20;52.90;;;;;;5099367;27;34181;-77
2021/12/03 00:17:37;;;;;;;7.03;4.07;;;3.30;52.80;;;;;;5116240;27;34461;-77
2021/12/03 00:20:07;;;;;;;10.40;4.10;;;3.30;52.80;;;;;;5114663;27;36230;-76
2021/12/03 00:22:34;;;;;;;7.63;5.05;;;3.30;52.80;;;;;;5099585;27;34328;-77
2021/12/03 00:25:00;;;;;;;6.40;4.72;;;3.30;52.90;;;;;;5115130;27;34180;-77
2021/12/03 00:27:26;;;;;;;5.75;4.38;;;3.30;52.70;;;;;;5082685;27;34223;-77
2021/12/03 00:29:52;;;;;;;7.68;4.80;;;3.30;52.80;;;;;;5134315;27;34447;-76
2021/12/03 00:32:18;;;;;;;7.57;4.53;;;3.40;52.80;;;;;;5116285;27;34138;-77
2021/12/03 00:34:45;;;;;;;7.47;4.45;;;3.30;52.70;;;;;;5115011;27;34352;-76
2021/12/03 00:37:11;;;;;;;11.48;4.80;;;3.40;52.70;;;;;;5134210;27;34613;-76
2021/12/03 00:39:37;;;;;;;6.10;4.15;;;3.40;52.70;;;;;;5098007;27;35831;-77
2021/12/03 00:42:04;;;;;;;6.80;4.55;;;3.40;52.70;;;;;;5098059;27;34446;-76
2021/12/03 00:44:31;;;;;;;6.45;4.82;;;3.40;52.70;;;;;;5098799;27;33609;-76
2021/12/03 00:46:59;;;;;;;6.43;4.40;;;3.40;52.70;;;;;;5133515;27;34200;-76
2021/12/03 00:49:26;;;;;;;7.60;4.50;;;3.40;52.70;;;;;;5131911;27;34234;-76
2021/12/03 00:51:52;;;;;;;6.57;4.72;;;3.40;52.70;;;;;;5096525;27;34199;-76
2021/12/03 00:54:19;;;;;;;5.65;4.10;;;3.40;52.60;;;;;;5113776;27;34414;-76
2021/12/03 00:56:45;;;;;;;9.48;5.68;;;3.40;52.30;;;;;;5131277;27;34058;-76
2021/12/03 00:59:11;;;;;;;8.30;5.07;;;3.40;52.30;;;;;;5111517;27;35748;-76
2021/12/03 01:01:38;;;;;;;6.90;5.03;;;3.50;52.50;;;;;;5093980;27;34280;-76
2021/12/03 01:04:05;;;;;;;8.32;5.43;;;3.50;52.40;;;;;;5111192;27;34283;-76
2021/12/03 01:06:31;;;;;;;7.20;4.88;;;3.50;52.30;;;;;;5111600;27;34293;-76
2021/12/03 01:08:57;;;;;;;12.27;4.93;;;3.50;52.10;;;;;;5091013;27;36354;-76
2021/12/03 01:11:23;;;;;;;7.55;5.28;;;3.60;52.70;;;;;;5109301;27;33873;-76
2021/12/03 01:13:49;;;;;;;5.97;4.05;;;3.50;51.90;;;;;;5109120;27;34061;-76
2021/12/03 01:16:16;;;;;;;7.13;5.03;;;3.60;51.90;;;;;;5127407;27;34326;-76
2021/12/03 01:18:45;;;;;;;8.30;4.53;;;3.60;52.00;;;;;;5127215;27;34114;-76
2021/12/03 01:21:11;;;;;;;7.57;4.88;;;3.60;51.90;;;;;;5091687;27;34022;-76
2021/12/03 01:23:38;;;;;;;5.20;3.97;;;3.60;51.80;;;;;;5127628;27;34271;-76
2021/12/03 01:26:04;;;;;;;8.05;4.95;;;3.60;52.50;;;;;;5109568;27;34247;-76
2021/12/03 01:28:30;;;;;;;6.63;4.60;;;3.60;51.80;;;;;;5127858;27;34301;-77
2021/12/03 01:30:58;;;;;;;8.00;5.20;;;3.70;51.80;;;;;;5128718;27;34265;-76
2021/12/03 01:33:24;;;;;;;7.47;4.35;;;3.60;51.60;;;;;;5127774;27;34298;-76
2021/12/03 01:35:51;;;;;;;6.30;4.20;;;3.60;51.70;;;;;;5109453;27;34299;-76
2021/12/03 01:38:17;;;;;;;7.28;4.50;;;3.60;51.90;;;;;;5092390;27;36421;-76
2021/12/03 01:40:44;;;;;;;7.85;4.45;;;3.60;51.80;;;;;;5108886;27;34182;-76
2021/12/03 01:43:14;;;;;;;7.03;4.80;;;3.70;51.90;;;;;;5108655;27;34169;-76
2021/12/03 01:45:41;;;;;;;10.52;5.07;;;3.60;51.80;;;;;;5109778;27;34411;-76
2021/12/03 01:48:07;;;;;;;8.30;4.78;;;3.60;51.80;;;;;;5109564;27;37111;-76
2021/12/03 01:50:39;;;;;;;8.43;5.22;;;3.70;51.80;;;;;;5109627;27;34024;-76
2021/12/03 01:53:06;;;;;;;8.85;5.15;;;3.70;51.80;;;;;;5075271;27;34226;-76
2021/12/03 01:55:34;;;;;;;6.18;4.40;;;3.70;51.80;;;;;;5127867;27;34044;-76
2021/12/03 01:58:00;;;;;;;8.38;4.70;;;3.70;51.80;;;;;;5092360;27;36670;-76
2021/12/03 02:00:31;;;;;;;7.10;4.30;;;3.80;51.80;;;;;;5108540;27;34292;-76
2021/12/03 02:02:58;;;;;;;8.80;4.65;;;3.80;51.80;;;;;;5075102;27;34076;-76
2021/12/03 02:05:24;;;;;;;6.60;4.35;;;3.80;51.80;;;;;;5108875;27;34475;-76
2021/12/03 02:07:51;;;;;;;6.70;4.30;;;3.80;51.70;;;;;;5108019;27;36092;-76
2021/12/03 02:10:20;;;;;;;8.55;4.20;;;3.80;51.90;;;;;;5125794;27;34228;-76
2021/12/03 02:12:47;;;;;;;10.68;4.80;;;3.80;51.80;;;;;;5108110;27;34153;-76
2021/12/03 02:15:14;;;;;;;11.70;4.57;;;3.80;51.90;;;;;;5125942;27;34342;-76
2021/12/03 02:17:40;;;;;;;9.43;4.97;;;3.80;51.90;;;;;;5107627;27;35826;-76
2021/12/03 02:20:10;;;;;;;10.35;4.90;;;3.80;51.90;;;;;;5091202;27;34401;-76
2021/12/03 02:22:37;;;;;;;9.32;3.90;;;3.80;51.70;;;;;;5094526;27;34151;-76
2021/12/03 02:25:05;;;;;;;8.52;5.05;;;3.80;51.70;;;;;;5130100;27;34639;-76
2021/12/03 02:27:31;;;;;;;7.28;4.00;;;3.80;51.80;;;;;;5095493;27;36062;-76
2021/12/03 02:29:57;;;;;;;5.47;4.25;;;3.80;51.60;;;;;;5131761;27;34378;-76
2021/12/03 02:32:23;;;;;;;10.07;5.13;;;3.80;51.70;;;;;;5111862;27;34446;-76
2021/12/03 02:34:49;;;;;;;7.18;4.88;;;3.80;51.80;;;;;;5111547;27;34193;-76
2021/12/03 02:37:15;;;;;;;9.48;4.78;;;3.80;51.80;;;;;;5111201;27;35523;-76
2021/12/03 02:39:41;;;;;;;6.20;4.13;;;3.80;51.70;;;;;;5111614;27;34110;-76
2021/12/03 02:42:08;;;;;;;8.90;4.63;;;3.80;51.80;;;;;;5111559;27;34146;-76
2021/12/03 02:44:34;;;;;;;7.30;4.35;;;3.80;51.80;;;;;;5111495;27;34175;-76
2021/12/03 02:47:00;;;;;;;9.15;4.35;;;3.80;51.80;;;;;;5093920;27;36075;-76
2021/12/03 02:49:26;;;;;;;7.15;4.50;;;3.80;51.90;;;;;;5110154;27;34256;-76
2021/12/03 02:51:52;;;;;;;6.88;4.97;;;3.80;52.50;;;;;;5093409;27;34378;-76
2021/12/03 02:54:18;;;;;;;6.32;4.32;;;3.80;51.90;;;;;;5110711;27;34250;-76
2021/12/03 02:56:44;;;;;;;6.57;4.00;;;3.80;51.90;;;;;;5093081;27;35492;-76
2021/12/03 02:59:10;;;;;;;13.23;5.43;;;3.80;51.90;;;;;;5110783;27;34094;-76
2021/12/03 03:01:36;;;;;;;11.60;4.88;;;3.80;51.90;;;;;;5109696;27;34295;-76
2021/12/03 03:04:02;;;;;;;8.77;4.55;;;3.80;52.00;;;;;;5110760;27;34059;-76
2021/12/03 03:06:29;;;;;;;10.20;4.63;;;3.80;52.10;;;;;;5075447;27;35633;-76
2021/12/03 03:08:56;;;;;;;8.43;4.35;;;3.80;52.00;;;;;;5109309;27;34157;-76
2021/12/03 03:11:22;;;;;;;9.27;4.72;;;3.80;52.00;;;;;;5093449;27;34432;-76
2021/12/03 03:13:49;;;;;;;7.93;4.90;;;3.80;52.00;;;;;;5093313;27;34328;-76
2021/12/03 03:16:16;;;;;;;9.02;4.53;;;3.80;52.00;;;;;;5109615;27;34469;-76
2021/12/03 03:18:43;;;;;;;8.98;4.93;;;3.80;52.00;;;;;;5110539;27;34324;-76
2021/12/03 03:21:09;;;;;;;9.70;4.95;;;3.80;52.00;;;;;;5110614;27;34169;-76
2021/12/03 03:23:36;;;;;;;9.20;5.00;;;3.80;52.00;;;;;;5128599;27;34173;-76
2021/12/03 03:26:03;;;;;;;12.07;4.57;;;3.80;52.10;;;;;;5127371;27;34311;-76
2021/12/03 03:28:29;;;;;;;8.55;4.28;;;3.80;52.00;;;;;;5109360;27;34145;-76
2021/12/03 03:30:57;;;;;;;9.88;4.53;;;3.80;52.00;;;;;;5109727;27;34234;-76
2021/12/03 03:33:23;;;;;;;7.45;4.55;;;3.80;52.00;;;;;;5110777;27;34172;-76
2021/12/03 03:35:50;;;;;;;6.55;3.97;;;3.80;51.90;;;;;;5128250;27;35338;-76
2021/12/03 03:38:16;;;;;;;5.57;3.67;;;3.80;52.00;;;;;;5109308;27;34298;-76
2021/12/03 03:40:43;;;;;;;5.50;4.07;;;3.80;52.00;;;;;;5126971;27;34301;-76
2021/12/03 03:43:10;;;;;;;9.93;4.10;;;3.80;52.00;;;;;;5110182;27;34201;-77
2021/12/03 03:45:38;;;;;;;7.15;4.10;;;3.80;52.00;;;;;;5127081;27;34242;-76
2021/12/03 03:48:04;;;;;;;6.10;4.68;;;3.80;52.10;;;;;;5110211;27;34165;-76
2021/12/03 03:50:31;;;;;;;8.07;3.47;;;3.80;52.10;;;;;;5092469;27;34194;-76
2021/12/03 03:52:58;;;;;;;8.48;4.20;;;3.80;52.00;;;;;;5109054;27;34294;-76
2021/12/03 03:55:25;;;;;;;6.03;3.60;;;3.80;52.10;;;;;;5126923;27;34218;-76
2021/12/03 03:57:54;;;;;;;4.43;2.95;;;3.80;52.10;;;;;;5109552;27;34040;-76
2021/12/03 04:00:25;;;;;;;5.75;3.83;;;3.80;52.10;;;;;;5127467;27;34068;-76
2021/12/03 04:02:51;;;;;;;6.47;3.90;;;3.80;52.00;;;;;;5075862;27;34213;-76
2021/12/03 04:05:17;;;;;;;4.63;3.30;;;3.80;52.00;;;;;;5127905;27;34165;-76
2021/12/03 04:07:43;;;;;;;7.97;3.97;;;3.80;51.80;;;;;;5109948;27;34141;-76
2021/12/03 04:10:10;;;;;;;6.85;3.45;;;3.80;51.80;;;;;;5092345;27;34103;-76
2021/12/03 04:12:37;;;;;;;6.03;3.67;;;3.90;51.90;;;;;;5127220;27;34140;-76
2021/12/03 04:15:05;;;;;;;6.15;4.07;;;3.90;51.90;;;;;;5108832;27;36402;-76
2021/12/03 04:17:31;;;;;;;7.07;3.47;;;3.90;52.00;;;;;;5108532;27;34355;-76
2021/12/03 04:19:57;;;;;;;5.53;3.67;;;3.90;52.00;;;;;;5108944;27;34225;-76
2021/12/03 04:22:24;;;;;;;8.10;3.75;;;3.90;51.90;;;;;;5108649;27;34502;-76
2021/12/03 04:24:52;;;;;;;5.05;3.25;;;3.90;51.70;;;;;;5108981;27;36509;-76
2021/12/03 04:27:19;;;;;;;4.50;3.72;;;3.90;51.80;;;;;;5075644;27;34411;-76
2021/12/03 04:29:45;;;;;;;6.47;4.05;;;3.90;51.80;;;;;;5109421;27;34098;-76
2021/12/03 04:32:12;;;;;;;7.57;3.53;;;3.90;51.90;;;;;;5075065;27;34131;-76
2021/12/03 04:34:38;;;;;;;10.63;4.05;;;3.90;51.70;;;;;;5074673;27;36381;-76
2021/12/03 04:37:05;;;;;;;4.20;3.40;;;3.90;51.60;;;;;;5108933;27;34076;-76
2021/12/03 04:39:31;;;;;;;7.53;3.15;;;3.90;51.80;;;;;;5109967;27;34301;-76
2021/12/03 04:41:57;;;;;;;4.93;3.28;;;3.90;51.80;;;;;;5108651;27;34032;-76
2021/12/03 04:44:23;;;;;;;8.77;3.85;;;3.90;51.80;;;;;;5126794;27;34322;-76
2021/12/03 04:46:50;;;;;;;5.72;3.65;;;3.90;51.80;;;;;;5126778;27;34252;-76
2021/12/03 04:49:16;;;;;;;5.20;3.15;;;3.90;51.80;;;;;;5108063;27;34465;-76
2021/12/03 04:51:42;;;;;;;5.65;3.40;;;3.90;51.80;;;;;;5092000;27;34587;-76
2021/12/03 04:54:08;;;;;;;4.97;3.33;;;3.90;51.80;;;;;;5091383;27;35717;-76
2021/12/03 04:56:34;;;;;;;4.90;3.53;;;3.90;51.80;;;;;;5108574;27;34392;-76
2021/12/03 04:59:00;;;;;;;7.60;3.78;;;3.90;51.50;;;;;;5108562;27;34196;-76
2021/12/03 05:01:26;;;;;;;6.15;3.65;;;3.90;51.50;;;;;;5108576;27;34103;-76
2021/12/03 05:03:52;;;;;;;7.30;3.08;;;3.90;51.60;;;;;;5091063;27;35904;-76
2021/12/03 05:06:29;;;;;;;5.97;3.42;;;3.80;51.50;;;;;;5091362;27;34285;-76
2021/12/03 05:08:55;;;;;;;7.85;3.75;;;3.90;51.60;;;;;;5108689;27;34197;-76
2021/12/03 05:11:22;;;;;;;6.45;3.63;;;3.90;51.70;;;;;;5108572;27;34156;-76
2021/12/03 05:13:48;;;;;;;6.07;3.95;;;3.90;51.60;;;;;;5108080;27;35789;-76
2021/12/03 05:16:14;;;;;;;5.07;3.10;;;3.90;51.40;;;;;;5127350;27;34343;-76
2021/12/03 05:18:44;;;;;;;6.07;3.35;;;3.80;51.40;;;;;;5126400;27;34312;-76
2021/12/03 05:21:10;;;;;;;8.57;4.07;;;3.90;51.60;;;;;;5107544;27;34269;-76
2021/12/03 05:23:36;;;;;;;6.43;3.55;;;3.80;51.50;;;;;;5126225;27;34423;-76
2021/12/03 05:26:03;;;;;;;3.55;3.22;;;3.90;51.40;;;;;;5091293;27;34070;-76
2021/12/03 05:28:32;;;;;;;6.57;3.83;;;3.80;51.40;;;;;;5125905;27;34232;-76
2021/12/03 05:30:58;;;;;;;4.55;3.22;;;3.80;51.30;;;;;;5127082;27;34335;-76
2021/12/03 05:33:24;;;;;;;7.80;3.53;;;3.80;51.40;;;;;;5125841;27;34563;-76
2021/12/03 05:35:50;;;;;;;5.60;3.65;;;3.90;51.40;;;;;;5107591;27;34261;-76
2021/12/03 05:38:17;;;;;;;7.82;3.75;;;3.80;51.30;;;;;;5125795;27;34150;-76
2021/12/03 05:40:43;;;;;;;5.95;3.05;;;3.80;51.40;;;;;;5091137;27;34511;-76
2021/12/03 05:43:09;;;;;;;5.93;3.47;;;3.80;51.30;;;;;;5107248;27;36025;-76
2021/12/03 05:45:36;;;;;;;6.35;3.50;;;3.80;51.40;;;;;;5090635;27;34411;-76
2021/12/03 05:48:03;;;;;;;9.70;3.80;;;3.80;51.40;;;;;;5107078;27;34320;-76
2021/12/03 05:50:29;;;;;;;6.10;2.97;;;3.80;51.50;;;;;;5090673;27;34217;-76
2021/12/03 05:52:57;;;;;;;7.72;4.05;;;3.80;51.40;;;;;;5125334;27;34448;-76
2021/12/03 05:55:24;;;;;;;7.45;3.65;;;3.80;51.50;;;;;;5124657;27;34294;-76
2021/12/03 05:57:50;;;;;;;4.90;3.22;;;3.80;51.50;;;;;;5088963;27;34176;-76
2021/12/03 06:00:27;;;;;;;4.63;3.38;;;3.80;51.50;;;;;;5125199;27;34150;-76
2021/12/03 06:02:54;;;;;;;6.95;3.45;;;3.80;51.40;;;;;;5073350;27;36589;-76
2021/12/03 06:05:22;;;;;;;6.82;3.50;;;3.80;51.50;;;;;;5125604;27;34275;-76
2021/12/03 06:07:48;;;;;;;7.20;3.28;;;3.80;51.40;;;;;;5107144;27;34198;-76
2021/12/03 06:10:15;;;;;;;6.85;3.13;;;3.80;51.30;;;;;;5107114;27;34436;-76
2021/12/03 06:12:41;;;;;;;7.28;4.03;;;3.80;51.30;;;;;;5106484;27;35730;-76
2021/12/03 06:15:07;;;;;;;6.95;3.42;;;3.80;51.50;;;;;;5106905;27;34369;-75
2021/12/03 06:17:33;;;;;;;4.40;3.63;;;3.80;51.50;;;;;;5107602;27;34200;-76
2021/12/03 06:19:59;;;;;;;6.05;3.97;;;3.80;51.50;;;;;;5107410;27;34345;-76
2021/12/03 06:22:25;;;;;;;8.18;4.22;;;3.80;51.40;;;;;;5126064;27;34614;-76
2021/12/03 06:24:51;;;;;;;6.55;3.63;;;3.80;51.40;;;;;;5125755;27;34389;-76
2021/12/03 06:27:17;;;;;;;7.18;3.45;;;3.80;51.30;;;;;;5091662;27;33853;-76
2021/12/03 06:29:43;;;;;;;5.60;3.70;;;3.80;51.40;;;;;;5106368;27;34430;-76
2021/12/03 06:32:10;;;;;;;6.68;3.78;;;3.70;51.40;;;;;;5106206;27;35766;-76
2021/12/03 06:34:38;;;;;;;5.63;3.40;;;3.70;51.50;;;;;;5106265;27;34332;-76
2021/12/03 06:37:04;;;;;;;9.15;4.07;;;3.70;51.40;;;;;;5125062;27;34148;-76
2021/12/03 06:39:30;;;;;;;7.18;4.03;;;3.70;51.50;;;;;;5105842;27;34172;-76
2021/12/03 06:41:57;;;;;;;4.93;3.03;;;3.70;51.40;;;;;;5124315;27;35018;-76
2021/12/03 06:44:25;;;;;;;5.22;3.13;;;3.70;51.50;;;;;;5107250;27;34182;-76
2021/12/03 06:46:53;;;;;;;5.97;3.45;;;3.80;51.40;;;;;;5091196;27;34120;-76
2021/12/03 06:49:21;;;;;;;6.82;3.13;;;3.70;51.50;;;;;;5106845;27;34419;-76
2021/12/03 06:51:48;;;;;;;7.55;3.20;;;3.70;51.50;;;;;;5123711;27;35073;-76
2021/12/03 06:54:23;;;;;;;7.15;3.38;;;3.80;51.60;;;;;;5106884;27;34225;-76
2021/12/03 06:56:52;;;;;;;5.10;3.22;;;3.80;51.50;;;;;;5106207;27;34043;-76
2021/12/03 06:59:21;;;;;;;8.05;3.50;;;3.70;51.50;;;;;;5107256;27;34468;-76
2021/12/03 07:01:48;;;;;;;4.43;3.28;;;3.80;51.50;;;;;;5107172;27;35514;-76
2021/12/03 07:04:14;;;;;;;5.55;3.53;;;3.80;51.50;;;;;;5106506;27;34397;-76
2021/12/03 07:06:41;;;;;;;6.20;3.90;;;3.70;51.40;;;;;;5106214;27;34181;-76
2021/12/03 07:09:07;;;;;;;6.35;3.17;;;3.70;51.40;;;;;;5093015;27;34274;-76
2021/12/03 07:11:34;;;;;;;8.75;3.25;;;3.70;51.60;;;;;;5128878;27;34034;-76
2021/12/03 07:14:00;;;;;;;5.35;3.10;;;3.70;51.60;;;;;;5091288;27;34378;-76
2021/12/03 07:16:26;;;;;;;7.05;2.92;;;3.70;51.70;;;;;;5108990;27;34436;-76
2021/12/03 07:18:52;;;;;;;5.43;3.00;;;3.70;51.60;;;;;;5128203;27;34226;-76
2021/12/03 07:21:19;;;;;;;8.63;3.05;;;3.70;51.70;;;;;;5091800;27;35950;-76
2021/12/03 07:23:45;;;;;;;6.38;3.08;;;3.70;51.70;;;;;;5109023;27;34160;-76
2021/12/03 07:26:12;;;;;;;5.53;2.80;;;3.70;51.70;;;;;;5128936;27;34043;-76
2021/12/03 07:28:38;;;;;;;5.50;3.13;;;3.70;51.60;;;;;;5092488;27;34207;-76
2021/12/03 07:31:04;;;;;;;6.88;2.90;;;3.70;51.70;;;;;;5127256;27;34565;-76
2021/12/03 07:33:31;;;;;;;3.78;2.63;;;3.70;51.70;;;;;;5092038;27;34277;-76
2021/12/03 07:35:58;;;;;;;3.65;2.53;;;3.70;51.60;;;;;;5109525;27;34624;-76
2021/12/03 07:38:24;;;;;;;6.82;3.08;;;3.60;51.60;;;;;;5104852;28;34448;-76
2021/12/03 07:40:51;;;;;;;5.13;2.50;;;3.60;51.60;;;;;;5105646;28;34451;-76
2021/12/03 07:43:18;;;;;;;6.35;3.00;;;3.60;51.60;;;;;;5105098;28;34192;-76
2021/12/03 07:45:46;;;;;;;4.72;2.83;;;3.60;51.60;;;;;;5104377;28;34328;-76
2021/12/03 07:48:12;;;;;;;5.78;3.05;;;3.70;51.80;;;;;;5087439;28;34205;-76
2021/12/03 07:50:39;;;;;;;7.53;3.00;;;3.60;51.50;;;;;;5104278;28;35870;-76
2021/12/03 07:53:06;;;;;;;4.65;2.72;;;3.60;51.50;;;;;;5106330;27;34095;-76
2021/12/03 07:55:33;;;;;;;4.13;2.67;;;3.60;51.70;;;;;;5088235;28;34187;-76
2021/12/03 07:58:00;;;;;;;5.72;2.53;;;3.70;51.60;;;;;;5104233;28;34154;-75
2021/12/03 08:00:26;;;;;;;4.55;2.67;;;3.60;51.40;;;;;;5104266;28;35994;-76
2021/12/03 08:02:52;;;;;;;6.63;2.83;;;3.70;51.50;;;;;;5088732;28;34326;-76
2021/12/03 08:05:18;;;;;;;5.75;2.95;;;3.70;51.50;;;;;;5104889;28;34419;-75
2021/12/03 08:07:46;;;;;;;6.07;2.85;;;3.70;51.50;;;;;;5104642;28;34480;-75
2021/12/03 08:10:14;;;;;;;5.68;2.83;;;3.70;51.50;;;;;;5105730;27;34352;-76
2021/12/03 08:12:59;;;;;;;7.28;2.60;;;3.70;51.60;;;;;;5087721;28;34388;-76
2021/12/03 08:15:25;;;;;;;4.28;2.22;;;3.70;51.60;;;;;;5105145;28;34310;-76
2021/12/03 08:17:51;;;;;;;3.50;2.15;;;3.60;51.50;;;;;;5105297;27;34194;-76
2021/12/03 08:20:18;;;;;;;5.05;2.95;;;3.70;51.60;;;;;;5104018;28;35571;-76
2021/12/03 08:22:45;;;;;;;6.00;2.72;;;3.70;51.70;;;;;;5104083;28;34216;-75
2021/12/03 08:25:12;;;;;;;5.68;2.63;;;3.70;51.50;;;;;;5087067;28;34218;-76
2021/12/03 08:27:40;;;;;;;4.57;2.80;;;3.70;51.50;;;;;;5104673;28;34191;-75
2021/12/03 08:32:51;;;;;;;4.10;2.55;;;3.70;51.40;;;;;;5089977;28;34263;-76
2021/12/03 08:35:17;;;;;;;7.13;2.70;;;3.70;51.30;;;;;;5104392;28;34335;-76
2021/12/03 08:37:46;;;;;;;4.35;2.60;;;3.70;51.30;;;;;;5106735;27;34324;-76
2021/12/03 08:40:13;;;;;;;5.72;2.90;;;3.70;51.30;;;;;;5106385;27;35562;-75
2021/12/03 08:42:39;;;;;;;5.00;3.20;;;3.80;51.40;;;;;;5107816;27;34290;-76
2021/12/03 08:45:06;;;;;;;7.55;2.78;;;3.80;51.40;;;;;;5107225;27;34327;-76
2021/12/03 08:47:34;;;;;;;4.88;2.90;;;3.80;51.20;;;;;;5125421;27;34189;-76
2021/12/03 08:50:03;;;;;;;5.55;2.45;;;3.80;51.30;;;;;;5124972;27;34441;-75
2021/12/03 08:52:45;;;;;;;4.80;2.58;;;3.80;51.30;;;;;;5106974;27;34208;-76
2021/12/03 08:55:11;;;;;;;7.75;3.13;;;3.90;51.40;;;;;;5107231;27;34367;-76
2021/12/03 08:57:37;;;;;;;6.85;2.92;;;3.90;51.20;;;;;;5125408;27;34172;-76
2021/12/03 09:00:11;;;;;;;5.25;3.03;;;3.90;51.30;;;;;;5125840;27;34323;-76
2021/12/03 09:02:38;;;;;;;7.63;2.85;;;4.00;51.10;;;;;;5074788;27;34322;-76
2021/12/03 09:05:05;;;;;;;6.45;2.05;;;4.00;51.00;;;;;;5125344;27;34318;-76
2021/12/03 09:07:31;;;;;;;5.90;2.15;;;3.90;50.70;;;;;;5125018;27;34190;-76
2021/12/03 09:09:58;;;;;;;7.78;2.90;;;4.00;50.90;;;;;;5106501;27;36366;-76
2021/12/03 09:12:24;;;;;;;4.55;2.55;;;4.00;50.80;;;;;;5107092;27;34555;-76
2021/12/03 09:15:03;;;;;;;3.95;2.67;;;4.00;50.90;;;;;;5089831;27;34287;-76
2021/12/03 09:17:37;;;;;;;6.30;2.70;;;4.00;50.90;;;;;;5107865;27;34135;-76
2021/12/03 09:20:16;;;;;;;3.88;2.45;;;4.10;50.90;;;;;;5108054;27;36063;-76
2021/12/03 09:22:50;;;;;;;4.20;2.42;;;4.10;50.40;;;;;;5091406;27;34188;-75
2021/12/03 09:25:23;;;;;;;4.47;2.28;;;4.10;51.00;;;;;;5108498;27;34235;-75
2021/12/03 09:27:50;;;;;;;4.78;2.47;;;4.10;50.80;;;;;;5109486;27;34254;-76
2021/12/03 09:30:17;;;;;;;5.97;3.00;;;4.10;50.70;;;;;;5106704;27;34605;-75
2021/12/03 09:32:48;;;;;;;5.60;3.15;;;4.10;51.00;;;;;;5106799;27;34198;-76
2021/12/03 09:35:15;;;;;;;4.07;2.75;;;4.10;50.90;;;;;;5107588;27;34275;-76
2021/12/03 09:37:41;;;;;;;3.80;2.83;;;4.10;50.80;;;;;;5107294;27;34700;-75
2021/12/03 09:40:09;;;;;;;9.90;3.67;;;4.10;51.70;;;;;;5106309;27;35754;-75
2021/12/03 09:42:37;;;;;;;4.20;2.95;;;4.10;51.00;;;;;;5125449;27;34080;-76
2021/12/03 09:45:06;;;;;;;3.67;2.58;;;4.10;50.90;;;;;;5109094;27;34280;-76
2021/12/03 09:47:32;;;;;;;5.55;2.95;;;4.10;51.00;;;;;;5127918;27;34312;-76
2021/12/03 09:50:00;;;;;;;5.47;2.53;;;4.20;50.80;;;;;;5106822;27;36671;-76
2021/12/03 09:52:32;;;;;;;3.85;2.30;;;4.20;51.10;;;;;;5126996;27;34140;-76
2021/12/03 09:55:05;;;;;;;3.10;2.33;;;4.20;51.00;;;;;;5093550;27;34660;-76
2021/12/03 09:57:44;;;;;;;5.30;3.22;;;4.20;50.80;;;;;;5124207;27;34183;-76
2021/12/03 10:00:31;;;;;;;4.25;2.50;;;4.10;50.80;;;;;;5105531;27;35858;-75
2021/12/03 10:03:17;;;;;;;4.22;2.80;;;4.10;51.10;;;;;;5105866;27;34254;-76
2021/12/03 10:11:58;;;;;;;4.68;2.45;;;4.00;51.20;;;;;;5110545;27;34866;-75
2021/12/03 10:14:36;;;;;;;8.32;2.63;;;4.00;51.10;;;;;;5109132;27;34241;-75
2021/12/03 10:20:00;;;;;;;6.35;2.40;;;4.00;51.00;;;;;;5123870;27;34359;-75
2021/12/03 10:22:53;;;;;;;3.20;2.55;;;3.90;51.10;;;;;;5074297;27;36805;-76
2021/12/03 10:31:02;;;;;;;6.03;2.80;;;3.90;51.10;;;;;;5125105;27;34235;-76
2021/12/03 10:36:44;;;;;;;3.03;2.22;;;3.90;51.10;;;;;;5108650;27;34389;-76
2021/12/03 10:45:16;;;;;;;3.85;2.53;;;3.90;51.00;;;;;;5085242;27;34421;-76
2021/12/03 10:47:55;;;;;;;3.47;2.72;;;3.90;51.00;;;;;;5094660;27;34340;-75
2021/12/03 10:50:28;;;;;;;3.28;2.50;;;3.90;51.00;;;;;;5109929;27;34375;-75
2021/12/03 10:56:09;;;;;;;5.20;2.05;;;3.80;51.20;;;;;;5127792;27;34145;-76
2021/12/03 11:04:42;;;;;;;4.20;2.83;;;3.90;50.90;;;;;;5127836;27;34078;-76
2021/12/03 11:07:38;;;;;;;5.18;2.42;;;3.90;50.60;;;;;;5112224;27;34322;-76
2021/12/03 11:33:34;;;;;;;4.55;2.55;;;4.00;50.70;;;;;;5127436;27;34220;-76
2021/12/03 12:02:46;;;;;;;4.00;2.67;;;4.10;50.40;;;;;;5110676;27;34328;-75
2021/12/03 12:08:32;;;;;;;4.43;2.78;;;4.00;50.40;;;;;;5111914;27;34400;-75
2021/12/03 12:32:08;;;;;;;8.15;3.53;;;4.10;50.50;;;;;;5128363;27;34081;-76
2021/12/03 12:34:11;;;;;;;4.60;3.20;;;4.10;50.90;;;;;;5113455;27;34661;-75
2021/12/03 13:04:17;;;;;;;5.90;2.90;;;4.20;50.20;;;;;;5126994;27;34189;-76
2021/12/03 13:11:51;;;;;;;4.50;2.70;;;4.30;50.60;;;;;;5110481;27;34125;-75
2021/12/03 13:22:53;;;;;;;7.10;2.58;;;4.30;50.50;;;;;;5110491;27;34233;-75
2021/12/03 13:39:37;;;;;;;9.32;2.75;;;4.40;50.50;;;;;;5125818;27;34218;-76
2021/12/03 13:44:07;;;;;;;2.55;2.13;;;4.40;50.50;;;;;;5111135;27;34828;-76
2021/12/03 13:58:57;;;;;;;4.47;3.15;;;4.50;50.10;;;;;;5127916;27;34327;-75
2021/12/03 14:19:02;;;;;;;6.68;2.42;;;4.60;49.90;;;;;;5110987;27;34225;-76
2021/12/03 14:21:23;;;;;;;3.97;2.45;;;4.70;50.10;;;;;;5109643;27;34208;-75
2021/12/03 14:39:38;;;;;;;4.97;2.53;;;4.80;49.80;;;;;;5125069;27;34176;-76
2021/12/03 14:42:29;;;;;;;5.25;2.67;;;4.90;50.10;;;;;;5097399;27;34052;-76
2021/12/03 14:45:03;;;;;;;7.03;2.33;;;4.90;50.00;;;;;;5086940;28;34069;-75
2021/12/03 14:47:51;;;;;;;5.05;2.60;;;4.90;50.00;;;;;;5105480;28;35312;-75
2021/12/03 14:50:35;;;;;;;5.38;2.35;;;4.90;50.00;;;;;;5090780;28;34258;-75
2021/12/03 14:55:50;;;;;;;7.18;3.22;;;4.80;49.90;;;;;;5089931;28;34184;-75
2021/12/03 14:58:21;;;;;;;4.75;2.67;;;4.90;50.10;;;;;;5087692;28;34447;-75
2021/12/03 15:00:56;;;;;;;5.53;2.53;;;4.90;49.70;;;;;;5086138;28;34171;-75
2021/12/03 15:09:14;;;;;;;5.43;2.03;;;4.90;50.10;;;;;;5089753;28;34285;-76
2021/12/03 15:12:04;;;;;;;6.47;2.42;;;4.90;49.70;;;;;;5088428;28;34263;-75
2021/12/03 15:22:50;;;;;;;5.35;2.42;;;4.90;50.00;;;;;;5105360;28;34258;-75
2021/12/03 15:25:25;;;;;;;4.18;1.90;;;4.90;49.70;;;;;;5073036;28;34341;-75
2021/12/03 15:30:44;;;;;;;9.07;2.40;;;4.90;49.80;;;;;;5091768;28;34341;-75
2021/12/03 15:33:22;;;;;;;3.88;1.90;;;4.90;49.80;;;;;;5092582;28;33744;-75
2021/12/03 15:35:58;;;;;;;3.67;2.28;;;4.90;49.90;;;;;;5091535;28;34330;-75
2021/12/03 15:38:37;;;;;;;8.93;2.35;;;4.90;49.80;;;;;;5091166;28;34798;-75
2021/12/03 15:41:29;;;;;;;4.57;2.08;;;4.90;49.70;;;;;;5108122;28;34135;-75
2021/12/03 15:57:44;;;;;;;3.20;1.92;;;4.90;49.90;;;;;;5093308;28;34401;-75
2021/12/03 16:08:21;;;;;;;3.63;1.92;;;4.90;50.30;;;;;;5106279;28;34295;-75
2021/12/03 16:16:48;;;;;;;2.30;2.00;;;4.80;50.60;;;;;;5092176;28;34234;-76
2021/12/03 16:19:18;;;;;;;4.22;1.75;;;4.80;50.70;;;;;;5092084;28;34088;-75
2021/12/03 16:22:06;;;;;;;5.55;1.80;;;4.80;51.20;;;;;;5088572;28;34502;-75
2021/12/03 16:27:38;;;;;;;3.70;2.55;;;4.70;51.50;;;;;;5106032;27;34778;-75
2021/12/03 16:51:34;;;;;;;3.30;1.90;;;4.40;52.20;;;;;;5105425;28;34162;-75
2021/12/03 16:54:10;;;;;;;2.75;1.80;;;4.40;52.60;;;;;;5086694;28;34472;-75
2021/12/03 16:56:43;;;;;;;3.75;1.98;;;4.40;52.60;;;;;;5087029;28;35785;-75
2021/12/03 16:59:09;;;;;;;2.15;1.80;;;4.40;52.80;;;;;;5086828;28;34335;-75
2021/12/03 17:01:42;;;;;;;3.67;2.15;;;4.30;53.10;;;;;;5086886;28;34202;-75
2021/12/03 17:15:10;;;;;;;3.05;1.85;;;4.30;53.10;;;;;;5105129;28;34087;-76
2021/12/03 17:21:01;;;;;;;4.03;2.00;;;4.20;53.10;;;;;;5104529;28;34614;-76
2021/12/03 17:31:35;;;;;;;3.88;1.95;;;4.10;53.30;;;;;;5107640;27;34220;-75
2021/12/03 17:50:27;;;;;;;1.65;1.33;;;4.10;53.40;;;;;;5124349;27;34819;-75
2021/12/03 17:58:26;;;;;;;2.42;1.85;;;4.10;53.80;;;;;;5123954;27;34102;-75
2021/12/03 18:01:01;;;;;;;2.22;1.25;;;4.10;53.80;;;;;;5105192;27;35589;-76
2021/12/03 18:03:34;;;;;;;1.58;1.08;;;4.10;53.60;;;;;;5105860;27;34164;-76
2021/12/03 18:14:30;;;;;;;1.20;1.10;;;4.10;53.60;;;;;;5123486;27;34243;-76
2021/12/03 18:49:34;;;;;;;1.55;1.30;;;4.00;54.10;;;;;;5123252;27;34207;-76
2021/12/03 18:52:18;;;;;;;1.20;1.10;;;4.00;54.00;;;;;;5124028;27;34019;-76
2021/12/03 18:54:58;;;;;;;1.77;1.30;;;4.10;54.20;;;;;;5104726;27;36016;-76
2021/12/03 18:57:28;;;;;;;1.30;1.20;;;4.10;53.90;;;;;;5106029;27;34297;-75
2021/12/03 18:59:58;;;;;;;1.42;1.15;;;4.10;53.90;;;;;;5088009;27;34202;-76
2021/12/03 19:02:26;;;;;;;1.33;1.02;;;4.10;53.80;;;;;;5104956;27;34431;-76
2021/12/03 19:04:58;;;;;;;1.98;1.20;;;4.10;53.60;;;;;;5107862;27;35771;-75
2021/12/03 19:07:30;;;;;;;1.42;1.20;;;4.20;53.60;;;;;;5108749;27;34240;-76
2021/12/03 19:10:01;;;;;;;1.50;1.30;;;4.20;53.70;;;;;;5108979;27;34276;-76
2021/12/03 19:12:29;;;;;;;1.88;1.42;;;4.20;53.90;;;;;;5109282;27;34307;-75
2021/12/03 19:14:57;;;;;;;0.90;0.90;;;4.20;53.60;;;;;;5108617;27;36046;-76